Independence, Minnesota
Current Conditions -  °F | °C
As of 3:55 AM on Sunday 23 Nov 2014 (Local Time) from KCFE Reporting Station
Haze Haze  
Wind Chill: 39°   Ceiling: 700
Heat Index: 42°   Visibility: 2mi
Dew Point: 41°   Wind: 6mph
Humidity: 95%   Direction: 190°S
Pressure: 29.45"   Gusts: NA
Location:  45.1045°N, 93.6647°W
Report Text: KCFE 230955Z AUTO 19005KT 2SM BR BKN007 BKN015 OVC019 06/05 A2945 RMK AO2 T00570050
Loading
Personal Weather Stations






























Interactive Weather Map New forecast layout! Learn more

10-Day Weather Forecast

Advertisements
Track Severe Weather on mobile